Latest Weather Observations for Orange Airport

IDN60801

Issued at 9:32 pm EST Sunday 30 August 2015 (issued every 30 minutes, with the page automatically refreshed every 10 minutes)

About weather observations | Map of weather stations | Latest weather observations for NSW | Other Formats
Station Details ID: 063303 Name: ORANGE AIRPORT AWS Lat: -33.38 Lon: 149.13 Height: 944.65 m
Data from the previous 72 hours. | See also: Recent months at Orange Airport
Date/Time
EST
Temp
°C
App
Temp
°C
Dew
Point
Rel
Hum
%
Delta-T
°C
Wind Press
QNH
hPa
Press
MSL
hPa
Rain
since 9 am
mm
Dir
 
Spd
km/h
Gust
km/h
Spd
kts
Gust
kts
30/09:10pm 4.9 0.0 3.9 93 0.4 SSW 19 22 10 12 1019.5 1020.2 0.0
30/09:00pm 4.8 -0.7 3.8 93 0.4 SSW 22 26 12 14 1019.5 1020.2 0.0
30/08:33pm 5.0 -0.1 4.0 93 0.4 SSW 20 28 11 15 1019.4 1020.1 0.0
30/08:30pm 5.0 -0.1 4.0 93 0.4 SSW 20 28 11 15 1019.4 1020.1 0.0
30/08:11pm 5.0 -0.5 4.0 93 0.4 SSW 22 30 12 16 1019.3 1020.0 0.0
30/08:00pm 5.1 0.0 4.1 93 0.4 SSW 20 28 11 15 1019.3 1020.0 0.0
30/07:30pm 5.3 -0.1 4.3 93 0.5 SW 22 30 12 16 1019.0 1019.8 0.0
30/07:14pm 5.5 0.1 4.5 93 0.5 SSW 22 30 12 16 1018.8 1019.6 0.0
30/07:00pm 5.3 0.2 4.3 93 0.5 SW 20 28 11 15 1018.8 1019.6 0.0
30/06:30pm 5.7 0.7 4.7 93 0.5 SW 20 26 11 14 1018.7 1019.5 0.0
30/06:00pm 5.9 0.9 3.6 85 1.0 SSW 19 24 10 13 1018.5 1019.2 0.0
30/05:30pm 6.7 1.5 3.5 80 1.4 SSW 20 24 11 13 1018.3 1019.0 0.0
30/05:00pm 7.7 2.6 3.9 77 1.7 SSW 20 26 11 14 1018.2 1018.9 0.0
30/04:30pm 8.4 3.6 4.4 76 1.9 SW 19 24 10 13 1018.2 1018.9 0.0
30/04:00pm 8.8 3.8 4.6 75 2.0 SSW 20 26 11 14 1018.1 1018.8 0.0
30/03:30pm 9.1 4.6 4.3 72 2.2 SSW 17 20 9 11 1018.1 1018.8 0.0
30/03:00pm 9.5 4.6 4.3 70 2.4 SSW 19 26 10 14 1018.3 1019.0 0.0
30/02:30pm 9.6 4.9 3.4 65 2.8 SW 17 24 9 13 1018.4 1019.1 0.0
30/02:00pm 9.6 5.0 3.6 66 2.8 SSW 17 24 9 13 1018.5 1019.2 0.0
30/01:30pm 9.8 5.3 4.2 68 2.6 SSW 17 24 9 13 1018.5 1019.2 0.0
30/01:00pm 9.6 4.6 3.6 66 2.8 SSW 19 26 10 14 1018.8 1019.6 0.0
30/12:30pm 9.0 4.1 2.1 62 3.1 SSW 17 24 9 13 1019.3 1020.0 0.0
30/12:00pm 9.0 4.5 4.0 71 2.3 SSW 17 22 9 12 1019.6 1020.3 0.0
30/11:30am 8.5 3.7 2.7 67 2.6 S 17 26 9 14 1019.9 1020.7 0.0
30/11:00am 8.2 3.8 2.7 68 2.4 SSE 15 20 8 11 1020.2 1021.0 0.0
30/10:30am 7.8 3.0 2.7 70 2.3 S 17 20 9 11 1020.5 1021.2 0.0
30/10:00am 7.1 2.0 2.8 74 1.9 SSW 19 22 10 12 1020.7 1021.5 0.0
30/09:30am 6.2 1.4 2.7 78 1.5 S 17 20 9 11 1020.6 1021.4 0.0
30/09:00am 5.5 0.1 2.5 81 1.3 S 20 26 11 14 1020.5 1021.2 0.0
30/08:30am 4.6 -0.6 2.5 86 0.9 SSW 19 26 10 14 1020.5 1021.2 0.0
30/08:00am 3.4 -1.1 2.2 92 0.5 SSW 15 17 8 9 1020.2 1021.0 0.0
30/07:30am 1.7 -2.6 0.7 93 0.4 SSW 13 17 7 9 1020.0 1020.8 0.0
30/07:00am 0.8 -3.3 -0.2 93 0.4 SSW 11 15 6 8 1019.7 1020.5 0.0
30/06:30am 0.4 -4.1 -0.6 93 0.4 SSW 13 15 7 8 1019.4 1020.1 0.0
30/06:00am 0.3 -4.3 -0.7 93 0.4 SSW 13 17 7 9 1019.3 1020.0 0.0
30/05:30am 0.2 -4.4 -0.8 93 0.4 SSW 13 17 7 9 1019.0 1019.8 0.0
30/05:00am 0.2 -4.7 -0.8 93 0.4 SW 15 17 8 9 1019.1 1019.9 0.0
30/04:30am 0.3 -4.6 -0.7 93 0.4 SW 15 17 8 9 1019.3 1020.0 0.0
30/04:00am 0.6 -4.3 -0.4 93 0.4 SSW 15 24 8 13 1019.5 1020.2 0.0
30/03:40am 0.7 -4.6 -0.3 93 0.4 SW 17 20 9 11 1019.6 1020.3 0.0
30/03:30am 0.9 -3.9 -0.1 93 0.4 SSW 15 20 8 11 1019.7 1020.5 0.0
30/03:00am 0.5 -3.6 -0.5 93 0.4 SSW 11 17 6 9 1019.9 1020.7 0.0
30/02:49am 0.1 -4.1 -0.9 93 0.4 SSW 11 17 6 9 1019.9 1020.7 0.0
30/02:30am -0.6 -4.9 -1.6 93 0.3 S 11 11 6 6 1020.1 1020.9 0.0
30/02:08am -1.6 -5.1 -2.7 92 0.3 S 6 11 3 6 1020.4 1021.1 0.0
30/02:00am -1.5 -5.0 -2.6 92 0.3 S 6 11 3 6 1020.5 1021.2 0.0
30/01:37am 0.0 -3.8 -1.0 93 0.4 SSW 9 11 5 6 1020.8 1021.6 0.0
30/01:30am 0.6 -3.5 -0.4 93 0.4 SSW 11 13 6 7 1020.8 1021.6 0.0
30/01:20am 0.5 -3.6 -0.5 93 0.4 SSW 11 15 6 8 1021.0 1021.8 0.0
30/01:06am -0.1 -3.9 -1.1 93 0.4 S 9 11 5 6 1021.0 1021.8 0.0
30/01:00am -0.3 -4.2 -1.3 93 0.4 S 9 13 5 7 1021.1 1021.9 0.0
30/12:30am -0.1 -4.3 -1.1 93 0.4 SSW 11 15 6 8 1021.2 1022.0 0.0
30/12:00am -0.7 -3.7 -1.7 93 0.3 SW 4 9 2 5 1021.4 1022.3 0.0
 
Date/Time
EST
Temp
°C
App
Temp
°C
Dew
Point
Rel
Hum
%
Delta-T
°C
Wind Press
QNH
hPa
Press
MSL
hPa
Rain
since 9 am
mm
Dir
 
Spd
km/h
Gust
km/h
Spd
kts
Gust
kts
29/11:30pm -0.9 -3.1 -1.9 93 0.3 CALM 0 0 0 0 1021.7 1022.5 0.0
29/11:00pm 0.3 -3.1 -0.7 93 0.4 W 7 9 4 5 1021.8 1022.6 0.0
29/10:30pm 1.0 -1.8 -0.1 92 0.4 W 4 7 2 4 1022.0 1022.8 0.0
29/10:00pm 1.3 -2.0 0.1 92 0.5 W 7 9 4 5 1022.3 1023.2 0.0
29/09:30pm 1.4 -2.3 0.2 92 0.5 SW 9 11 5 6 1022.2 1023.0 0.0
29/09:00pm 2.2 -1.8 0.6 89 0.6 SW 11 17 6 9 1022.0 1022.8 0.0
29/08:30pm 2.7 -1.2 1.1 89 0.7 SSW 11 17 6 9 1021.8 1022.6 0.0
29/08:00pm 3.1 -1.9 1.2 87 0.8 SW 17 22 9 12 1021.3 1022.1 0.0
29/07:30pm 3.7 -1.2 1.9 88 0.8 SW 17 24 9 13 1021.1 1021.9 0.0
29/07:00pm 3.9 -0.7 1.8 86 0.9 WSW 15 17 8 9 1021.0 1021.8 0.0
29/06:30pm 4.7 0.2 2.4 85 1.0 WSW 15 19 8 10 1021.0 1021.8 0.0
29/06:00pm 5.2 0.3 2.2 81 1.3 WSW 17 22 9 12 1020.9 1021.7 0.0
29/05:30pm 6.1 -0.1 2.4 77 1.6 WSW 24 32 13 17 1020.7 1021.5 0.0
29/05:00pm 6.5 0.4 2.9 78 1.6 SW 24 32 13 17 1020.5 1021.2 0.0
29/04:30pm 7.4 0.9 2.9 73 2.0 WSW 26 35 14 19 1020.5 1021.2 0.0
29/04:00pm 7.6 2.4 3.8 77 1.7 SSW 20 28 11 15 1020.6 1021.4 0.0
29/03:30pm 7.1 1.5 3.7 79 1.5 SW 22 30 12 16 1020.7 1021.5 0.0
29/03:00pm 8.5 2.9 3.6 71 2.2 WSW 22 32 12 17 1020.8 1021.6 0.0
29/02:30pm 8.3 2.4 3.9 74 2.0 WSW 24 30 13 16 1021.0 1021.8 0.0
29/02:00pm 8.4 2.9 3.8 73 2.1 WSW 22 32 12 17 1021.3 1022.1 0.0
29/01:30pm 8.3 2.3 3.6 72 2.1 WSW 24 35 13 19 1021.6 1022.4 0.0
29/01:00pm 7.5 1.9 3.4 75 1.8 SW 22 32 12 17 1022.2 1023.0 0.0
29/12:30pm 7.2 2.0 3.4 77 1.7 SW 20 28 11 15 1022.5 1023.4 0.0
29/12:00pm 7.0 1.3 3.1 76 1.7 WSW 22 30 12 16 1022.8 1023.6 0.0
29/11:30am 7.3 1.7 3.2 75 1.8 WSW 22 35 12 19 1023.0 1023.8 0.0
29/11:00am 6.6 1.0 3.2 79 1.5 SW 22 30 12 16 1023.3 1024.2 0.0
29/10:36am 6.5 0.8 2.8 77 1.6 WSW 22 32 12 17 1023.3 1024.2 0.0
29/10:30am 6.2 0.5 2.7 78 1.5 WSW 22 32 12 17 1023.3 1024.2 0.0
29/10:00am 6.2 0.6 3.5 83 1.2 WSW 22 32 12 17 1023.3 1024.2 0.0
29/09:58am 6.0 0.4 3.2 82 1.2 WSW 22 32 12 17 1023.4 1024.3 0.0
29/09:56am 6.5 1.0 3.8 83 1.2 WSW 22 32 12 17 1023.3 1024.2 0.0
29/09:30am 6.4 1.3 4.2 86 1.0 WSW 20 24 11 13 1023.2 1024.0 0.0
29/09:25am 6.4 1.4 4.4 87 0.9 WSW 20 30 11 16 1023.3 1024.2 0.0
29/09:19am 6.7 1.4 4.9 88 0.8 WSW 22 30 12 16 1023.2 1024.0 0.0
29/09:00am 7.0 2.0 4.8 86 1.0 W 20 28 11 15 1023.2 1024.0 0.0
29/08:35am 6.0 1.9 4.6 91 0.6 WSW 15 20 8 11 1023.1 1023.9 0.0
29/08:30am 5.7 1.3 4.5 92 0.5 WSW 17 20 9 11 1023.1 1023.9 0.0
29/08:00am 4.9 1.1 3.9 93 0.4 SW 13 19 7 10 1023.0 1023.8 0.0
29/07:58am 5.0 1.2 4.0 93 0.4 SW 13 19 7 10 1023.0 1023.8 0.0
29/07:30am 4.4 1.8 3.4 93 0.4 W 6 9 3 5 1023.0 1023.8 0.0
29/07:00am 3.8 0.6 2.8 93 0.4 SW 9 15 5 8 1022.7 1023.5 0.0
29/06:30am 2.9 0.1 1.9 93 0.4 W 6 7 3 4 1022.5 1023.4 0.0
29/06:00am 3.8 0.2 2.8 93 0.4 WSW 11 17 6 9 1022.4 1023.3 0.0
29/05:30am 3.3 -0.8 2.3 93 0.4 SW 13 17 7 9 1022.4 1023.3 0.0
29/05:00am 3.5 -2.3 2.5 93 0.4 WSW 22 28 12 15 1022.3 1023.2 0.0
29/04:35am 2.8 -2.1 1.8 93 0.4 WSW 17 20 9 11 1022.3 1023.2 0.0
29/04:30am 2.3 -2.0 1.3 93 0.4 SW 13 20 7 11 1022.3 1023.2 0.0
29/04:00am 2.0 -1.2 1.0 93 0.4 W 7 9 4 5 1022.3 1023.2 0.0
29/03:30am 1.5 -2.5 0.5 93 0.4 WSW 11 11 6 6 1022.1 1022.9 0.0
29/03:00am 2.7 1.0 1.7 93 0.4 CALM 0 7 0 4 1022.4 1023.3 0.0
29/02:30am 3.6 0.9 2.6 93 0.4 WSW 6 7 3 4 1022.8 1023.6 0.0
29/02:00am 4.1 2.6 3.1 93 0.4 CALM 0 0 0 0 1023.1 1023.9 0.0
29/01:30am 4.8 2.3 3.8 93 0.4 SW 6 9 3 5 1023.4 1024.3 0.0
29/01:00am 5.1 3.0 4.1 93 0.4 W 4 7 2 4 1023.6 1024.5 0.0
29/12:30am 5.2 2.8 4.2 93 0.5 SW 6 7 3 4 1023.5 1024.4 0.0
29/12:00am 5.2 2.8 4.2 93 0.4 SW 6 9 3 5 1023.6 1024.5 0.0
 
Date/Time
EST
Temp
°C
App
Temp
°C
Dew
Point
Rel
Hum
%
Delta-T
°C
Wind Press
QNH
hPa
Press
MSL
hPa
Rain
since 9 am
mm
Dir
 
Spd
km/h
Gust
km/h
Spd
kts
Gust
kts
28/11:30pm 5.5 2.5 4.2 91 0.6 SSW 9 9 5 5 1023.9 1024.7 0.0
28/11:00pm 5.5 3.0 3.7 88 0.8 SW 6 11 3 6 1024.0 1024.8 0.0
28/10:30pm 5.4 2.9 3.9 90 0.7 WSW 6 9 3 5 1023.9 1024.7 0.0
28/10:00pm 5.3 2.3 4.1 92 0.5 SW 9 11 5 6 1024.0 1024.8 0.0
28/09:30pm 5.3 3.3 4.3 93 0.5 WSW 4 9 2 5 1024.1 1024.9 0.0
28/09:00pm 5.5 3.0 4.5 93 0.5 WSW 7 9 4 5 1024.1 1024.9 0.0
28/08:30pm 5.4 2.8 4.4 93 0.5 WSW 7 9 4 5 1023.9 1024.7 0.0
28/08:00pm 5.5 2.6 4.5 93 0.5 WSW 9 11 5 6 1023.8 1024.6 0.0
28/07:30pm 5.6 2.7 4.6 93 0.5 W 9 11 5 6 1023.5 1024.4 0.0
28/07:00pm 5.6 3.1 4.6 93 0.5 W 7 9 4 5 1023.3 1024.2 0.0
28/06:30pm 5.7 3.4 4.7 93 0.5 SW 6 7 3 4 1023.2 1024.0 0.0
28/06:00pm 5.8 3.3 4.8 93 0.5 SSW 7 9 4 5 1023.2 1024.0 0.0
28/05:30pm 5.8 2.9 4.8 93 0.5 WSW 9 13 5 7 1022.9 1023.7 0.0
28/05:03pm 5.9 2.7 4.9 93 0.5 WSW 11 13 6 7 1022.8 1023.6 0.0
28/05:00pm 5.9 2.3 4.9 93 0.5 WSW 13 17 7 9 1022.7 1023.5 0.0
28/04:30pm 6.0 2.4 5.0 93 0.5 WSW 13 17 7 9 1022.4 1023.3 0.0
28/04:15pm 6.1 2.9 4.9 92 0.6 SW 11 15 6 8 1022.4 1023.3 0.0
28/04:00pm 6.2 3.3 4.8 91 0.6 SW 9 13 5 7 1022.3 1023.2 0.0
28/03:51pm 6.3 3.1 5.1 92 0.6 SW 11 15 6 8 1022.3 1023.2 0.0
28/03:46pm 6.3 3.1 5.1 92 0.6 SW 11 15 6 8 1022.3 1023.2 0.0
28/03:33pm 6.1 2.5 4.9 92 0.6 WSW 13 15 7 8 1022.2 1023.0 0.0
28/03:30pm 6.0 2.4 4.8 92 0.6 WSW 13 15 7 8 1022.2 1023.0 0.0
28/03:00pm 6.2 2.9 4.4 88 0.8 SW 11 15 6 8 1022.1 1022.9 0.0
28/02:59pm 6.3 3.0 4.6 89 0.8 SW 11 15 6 8 1022.1 1022.9 0.0
28/02:56pm 6.3 3.0 4.8 90 0.7 SW 11 17 6 9 1022.1 1022.9 0.0
28/02:30pm 6.3 2.2 4.5 88 0.8 WSW 15 19 8 10 1022.0 1022.8 0.0
28/02:00pm 6.8 2.8 4.8 87 0.9 WSW 15 20 8 11 1021.9 1022.7 0.0
28/01:30pm 6.4 3.2 5.0 91 0.6 W 11 15 6 8 1022.0 1022.8 0.0
28/01:03pm 5.3 1.6 4.3 93 0.5 W 13 15 7 8 1022.0 1022.8 0.0
28/01:00pm 5.2 1.5 4.2 93 0.4 W 13 15 7 8 1022.0 1022.8 0.0
28/12:47pm 4.8 0.6 3.8 93 0.4 WSW 15 20 8 11 1022.1 1022.9 0.0
28/12:30pm 5.2 0.7 4.2 93 0.5 SW 17 22 9 12 1022.2 1023.0 0.0
28/12:00pm 5.5 1.8 4.3 92 0.5 WSW 13 17 7 9 1022.2 1023.0 0.0
28/11:30am 6.1 2.5 4.9 92 0.6 WSW 13 19 7 10 1022.3 1023.2 0.0
28/11:00am 5.8 1.4 4.8 93 0.5 WSW 17 20 9 11 1022.4 1023.3 0.0
28/10:30am 5.2 0.3 4.2 93 0.5 SW 19 24 10 13 1022.7 1023.5 0.0
28/10:02am 4.9 0.0 3.9 93 0.4 WSW 19 24 10 13 1022.5 1023.4 0.0
28/10:00am 4.8 -0.2 3.8 93 0.4 WSW 19 24 10 13 1022.5 1023.4 0.0
28/09:30am 4.5 -0.5 3.5 93 0.4 WSW 19 22 10 12 1022.2 1023.0 0.0
28/09:01am 4.7 -0.5 3.7 93 0.4 W 20 28 11 15 1022.1 1022.9 0.0
28/09:00am 4.7 -0.5 3.7 93 0.4 W 20 26 11 14 1022.0 1022.8 6.8
28/08:50am 4.6 -0.4 3.6 93 0.4 W 19 26 10 14 1022.0 1022.8 6.8
28/08:31am 4.4 -0.8 3.4 93 0.4 WSW 20 26 11 14 1021.8 1022.6 6.6
28/08:30am 4.4 -0.8 3.4 93 0.4 WSW 20 26 11 14 1021.8 1022.6 6.6
28/08:00am 4.9 -0.6 3.9 93 0.4 WSW 22 30 12 16 1021.3 1022.1 6.6
28/07:35am 5.3 -0.5 4.3 93 0.5 W 24 33 13 18 1021.0 1021.8 6.6
28/07:30am 5.4 0.0 4.4 93 0.5 WSW 22 33 12 18 1020.9 1021.7 6.6
28/07:28am 5.3 0.2 4.3 93 0.5 WSW 20 33 11 18 1020.9 1021.7 6.6
28/07:17am 5.0 -0.5 4.0 93 0.4 WSW 22 28 12 15 1020.9 1021.7 6.6
28/07:16am 5.0 -0.1 4.0 93 0.4 WSW 20 28 11 15 1020.9 1021.7 6.6
28/07:00am 4.8 0.2 3.8 93 0.4 W 17 22 9 12 1020.8 1021.6 6.6
28/06:30am 4.4 -0.8 3.4 93 0.4 W 20 30 11 16 1020.6 1021.4 6.6
28/06:00am 4.2 -1.1 3.2 93 0.4 W 20 28 11 15 1020.2 1021.0 6.6
28/05:30am 4.3 -1.3 3.3 93 0.4 W 22 28 12 15 1020.1 1020.9 6.6
28/05:00am 4.3 -0.9 3.3 93 0.4 W 20 28 11 15 1020.0 1020.8 6.6
28/04:30am 4.3 -1.3 3.3 93 0.4 W 22 30 12 16 1019.7 1020.5 6.6
28/04:00am 4.3 -0.8 3.3 93 0.4 WSW 19 26 10 14 1019.7 1020.5 6.6
28/03:30am 4.5 -0.7 3.5 93 0.4 W 20 32 11 17 1019.5 1020.2 6.6
28/03:00am 4.5 -0.7 3.5 93 0.4 WSW 20 26 11 14 1019.6 1020.3 6.6
28/02:30am 4.5 -1.8 3.5 93 0.4 WSW 26 37 14 20 1019.7 1020.5 6.6
28/02:00am 4.6 -1.0 3.6 93 0.4 WSW 22 28 12 15 1020.0 1020.8 6.6
28/01:30am 4.6 -1.0 3.6 93 0.4 W 22 28 12 15 1020.2 1021.0 6.6
28/01:00am 4.7 -0.3 3.5 92 0.5 W 19 24 10 13 1020.4 1021.1 6.6
28/12:30am 4.7 0.9 3.7 93 0.4 WSW 13 20 7 11 1020.5 1021.2 6.6
28/12:00am 4.6 1.1 3.6 93 0.4 W 11 17 6 9 1020.4 1021.1 6.6
 
Date/Time
EST
Temp
°C
App
Temp
°C
Dew
Point
Rel
Hum
%
Delta-T
°C
Wind Press
QNH
hPa
Press
MSL
hPa
Rain
since 9 am
mm
Dir
 
Spd
km/h
Gust
km/h
Spd
kts
Gust
kts
27/11:58pm 4.6 0.7 3.6 93 0.4 W 13 17 7 9 1020.4 1021.1 6.6
27/11:43pm 4.6 0.0 3.6 93 0.4 WSW 17 24 9 13 1020.2 1021.0 6.6
27/11:33pm 4.6 -0.6 3.6 93 0.4 W 20 28 11 15 1020.4 1021.1 6.6
27/11:30pm 4.7 -0.5 3.7 93 0.4 W 20 28 11 15 1020.4 1021.1 6.6
27/11:00pm 5.2 0.3 4.2 93 0.4 W 19 26 10 14 1020.4 1021.1 6.4
27/10:30pm 4.8 1.0 3.8 93 0.4 W 13 20 7 11 1020.5 1021.2 6.4
27/10:03pm 4.7 0.1 3.7 93 0.4 W 17 22 9 12 1020.7 1021.5 6.4
27/10:00pm 4.5 0.2 3.5 93 0.4 W 15 20 8 11 1020.7 1021.5 6.4

Other Formats:

Comma delimited format used in spreadsheet applications
http://www.bom.gov.au/fwo/IDN60801/IDN60801.95726.axf

JavaScript Object Notation format (JSON) in row-major order
http://www.bom.gov.au/fwo/IDN60801/IDN60801.95726.json